Latest Weather Observations for Beerburrum

IDQ60801

Issued at 4:02 pm EST Sunday 4 December 2016 (issued every 30 minutes, with the page automatically refreshed every 10 minutes)

About weather observations | Map of weather stations | Latest weather observations for QLD | Other Formats
Station Details ID: 040284 Name: BEERBURRUM FOREST STATION Lat: -26.96 Lon: 152.96 Height: 48.0 m
Data from the previous 72 hours. | See also: Recent months at Beerburrum
Date/Time
EST
Temp
°C
App
Temp
°C
Dew
Point
°C
Rel
Hum
%
Delta-T
°C
Wind Press
QNH
hPa
Press
MSL
hPa
Rain since
9am
mm
Dir  Spd
km/h
Gust
km/h
Spd
kts
Gust
kts
04/04:00pm 28.4 30.0 20.7 63 5.1 NE 13 26 7 14 - - 5.6
04/03:30pm 28.5 29.2 20.5 62 5.3 NNE 17 28 9 15 - - 5.6
04/03:00pm 29.5 31.2 20.9 60 5.7 NNE 13 26 7 14 - - 5.6
04/02:30pm 29.8 31.5 20.9 59 5.9 NE 13 28 7 15 - - 5.6
04/02:00pm 30.2 32.9 22.1 62 5.5 NE 11 26 6 14 - - 5.6
04/01:30pm 29.7 31.6 20.5 57 6.1 NE 11 22 6 12 - - 5.6
04/01:00pm 29.8 30.2 20.6 57 6.1 NNE 19 28 10 15 - - 5.6
04/12:30pm 30.7 33.1 21.5 58 6.2 ENE 11 24 6 13 - - 5.6
04/12:00pm 31.0 33.3 20.6 54 6.9 ENE 9 17 5 9 - - 5.6
04/11:30am 30.8 32.8 20.7 55 6.7 NE 11 19 6 10 - - 5.6
04/11:00am 30.8 33.2 20.1 53 7.1 ENE 7 19 4 10 - - 5.6
04/10:30am 30.0 31.8 18.4 49 7.5 NNE 6 9 3 5 - - 4.0
04/10:00am 28.8 29.8 17.7 51 7.0 NE 9 17 5 9 - - 3.0
04/09:30am 28.5 30.0 17.7 52 6.9 N 6 15 3 8 - - 1.6
04/09:00am 27.5 28.4 18.5 58 5.8 NNW 11 20 6 11 - - 7.2
04/08:30am 26.3 28.1 18.4 61 5.0 W 6 11 3 6 - - 5.2
04/08:00am 25.7 27.8 18.9 66 4.4 N 6 11 3 6 - - 2.8
04/07:30am 24.9 28.4 20.4 76 2.9 N 2 6 1 3 - - 2.8
04/07:00am 24.1 27.4 20.0 78 2.7 S 2 6 1 3 - - 2.8
04/06:30am 22.9 26.1 20.6 87 1.5 SW 4 7 2 4 - - 2.6
04/06:00am 21.4 24.7 20.0 92 0.9 WSW 2 6 1 3 - - 2.6
04/05:30am 20.5 23.8 19.2 92 0.8 CALM 0 0 0 0 - - 2.6
04/05:00am 19.6 22.5 18.1 91 0.9 CALM 0 0 0 0 - - 2.6
04/04:30am 19.4 21.8 17.9 91 0.9 ESE 2 9 1 5 - - 2.4
04/04:00am 20.0 22.4 18.0 88 1.2 E 2 6 1 3 - - 2.4
04/03:30am 20.5 22.1 17.9 85 1.6 S 6 11 3 6 - - 2.4
04/03:00am 20.8 22.5 18.4 86 1.5 SSE 7 15 4 8 - - 2.2
04/02:30am 20.6 22.9 18.5 88 1.3 SE 4 7 2 4 - - 2.2
04/02:00am 20.8 23.2 18.7 88 1.3 SE 4 9 2 5 - - 2.2
04/01:30am 21.3 24.0 19.4 89 1.2 NNW 4 11 2 6 - - 2.0
04/01:00am 21.3 25.0 19.9 92 0.9 CALM 0 4 0 2 - - 2.0
04/12:30am 21.5 25.2 20.0 91 1.0 CALM 0 0 0 0 - - 1.8
04/12:00am 21.9 25.8 20.4 91 1.0 CALM 0 0 0 0 - - 1.8
 
Date/Time
EST
Temp
°C
App
Temp
°C
Dew
Point
°C
Rel
Hum
%
Delta-T
°C
Wind Press
QNH
hPa
Press
MSL
hPa
Rain since
9am
mm
Dir  Spd
km/h
Gust
km/h
Spd
kts
Gust
kts
03/11:30pm 22.5 25.5 20.8 90 1.1 NNE 6 9 3 5 - - 1.8
03/11:00pm 22.8 25.8 21.3 91 1.0 N 7 13 4 7 - - 1.6
03/10:30pm 23.2 25.6 21.6 91 1.1 NNE 11 17 6 9 - - 1.6
03/10:00pm 23.4 26.8 22.0 92 0.9 NNE 7 11 4 6 - - 1.4
03/09:30pm 22.9 25.7 21.5 92 0.9 NNE 9 22 5 12 - - 1.4
03/09:00pm 22.1 25.0 20.6 91 1.0 N 6 9 3 5 - - 1.2
03/08:30pm 22.0 24.6 20.5 91 1.0 N 7 11 4 6 - - 1.0
03/08:00pm 21.7 23.3 20.0 90 1.1 NNE 11 20 6 11 - - 0.8
03/07:30pm 21.2 21.0 19.3 89 1.2 N 19 22 10 12 - - 0.6
03/07:00pm 20.6 19.4 18.5 88 1.3 SSW 22 46 12 25 - - 0.4
03/06:30pm 25.0 27.6 20.5 76 2.9 SE 7 17 4 9 - - 0.0
03/06:00pm 26.5 28.6 20.1 68 4.2 WSW 9 22 5 12 - - 0.0
03/05:30pm 27.5 28.7 19.8 63 5.0 NNE 13 26 7 14 - - 0.0
03/05:00pm 27.9 29.5 19.9 61 5.2 NNE 11 24 6 13 - - 0.0
03/04:30pm 28.9 30.1 19.8 58 6.0 NE 13 24 7 13 - - 0.0
03/04:00pm 30.4 31.9 19.7 52 7.0 NE 11 28 6 15 - - 0.0
03/03:30pm 30.4 31.5 19.7 52 7.0 NNE 13 24 7 13 - - 0.0
03/03:00pm 30.8 32.5 20.1 53 7.1 NE 11 19 6 10 - - 0.0
03/02:30pm 31.3 32.8 21.2 55 6.8 ENE 15 24 8 13 - - 0.0
03/02:00pm 30.9 32.2 20.2 53 7.1 NNE 13 24 7 13 - - 0.0
03/01:30pm 31.2 32.8 20.8 54 6.9 NE 13 28 7 15 - - 0.0
03/01:00pm 31.4 33.2 20.4 52 7.3 ENE 11 20 6 11 - - 0.0
03/12:30pm 31.4 33.5 21.0 54 7.0 NE 11 19 6 10 - - 0.0
03/12:00pm 31.7 33.5 21.2 53 7.1 ESE 13 22 7 12 - - 0.0
03/11:30am 31.8 33.1 18.4 45 8.7 ENE 9 13 5 7 - - 0.0
03/11:00am 31.4 33.4 19.1 48 8.0 NNW 7 13 4 7 - - 0.0
03/10:30am 30.7 32.8 19.4 51 7.4 NNW 7 13 4 7 - - 0.0
03/10:00am 29.8 32.0 19.5 54 6.7 NNW 7 17 4 9 - - 0.0
03/09:30am 29.5 31.1 19.2 54 6.7 NE 9 17 5 9 - - 0.0
03/09:00am 28.3 29.6 18.4 55 6.3 NE 9 13 5 7 - - 0.0
03/08:30am 28.8 31.3 20.3 60 5.6 NNE 7 11 4 6 - - 0.0
03/08:00am 27.6 28.9 19.4 61 5.3 N 11 19 6 10 - - 0.0
03/07:30am 26.5 28.8 20.6 70 3.9 NNE 9 15 5 8 - - 0.0
03/07:00am 25.2 28.8 21.3 79 2.6 NNE 4 11 2 6 - - 0.0
03/06:30am 23.5 28.3 22.1 92 0.9 CALM 0 0 0 0 - - 0.0
03/06:00am 22.4 26.6 21.0 92 0.9 CALM 0 0 0 0 - - 0.0
03/05:30am 21.7 25.6 20.3 92 0.9 CALM 0 0 0 0 - - 0.0
03/05:00am 21.0 24.5 19.6 92 0.9 CALM 0 4 0 2 - - 0.0
03/04:30am 20.6 23.9 19.1 91 0.9 CALM 0 0 0 0 - - 0.0
03/04:00am 21.2 24.8 19.8 92 0.9 CALM 0 0 0 0 - - 0.0
03/03:30am 21.1 24.6 19.6 91 1.0 CALM 0 6 0 3 - - 0.0
03/03:00am 21.3 24.9 19.8 91 1.0 CALM 0 0 0 0 - - 0.0
03/02:30am 21.6 25.3 19.9 90 1.1 CALM 0 4 0 2 - - 0.0
03/02:00am 22.2 25.0 20.5 90 1.1 NNE 6 7 3 4 - - 0.0
03/01:30am 22.2 25.0 20.5 90 1.1 NNE 6 11 3 6 - - 0.0
03/01:00am 22.5 25.3 20.8 90 1.1 NNE 7 15 4 8 - - 0.0
03/12:30am 22.4 25.7 20.7 90 1.1 NNE 4 9 2 5 - - 0.0
03/12:00am 22.5 25.3 20.8 90 1.1 N 7 13 4 7 - - 0.0
 
Date/Time
EST
Temp
°C
App
Temp
°C
Dew
Point
°C
Rel
Hum
%
Delta-T
°C
Wind Press
QNH
hPa
Press
MSL
hPa
Rain since
9am
mm
Dir  Spd
km/h
Gust
km/h
Spd
kts
Gust
kts
02/11:30pm 22.1 25.3 20.4 90 1.1 NNE 4 9 2 5 - - 0.0
02/11:00pm 22.1 25.9 20.2 89 1.2 CALM 0 0 0 0 - - 0.0
02/10:30pm 22.4 26.5 20.7 90 1.1 CALM 0 0 0 0 - - 0.0
02/10:00pm 22.5 26.3 20.2 87 1.5 CALM 0 0 0 0 - - 0.0
02/09:30pm 23.0 26.3 20.7 87 1.5 NNE 4 7 2 4 - - 0.0
02/09:00pm 23.3 27.4 20.8 86 1.6 CALM 0 4 0 2 - - 0.0
02/08:30pm 23.6 27.4 20.9 85 1.8 NE 2 7 1 4 - - 0.0
02/08:00pm 23.7 26.7 20.8 84 1.9 NE 6 13 3 7 - - 0.0
02/07:30pm 24.0 26.9 20.7 82 2.2 NE 6 13 3 7 - - 0.0
02/07:00pm 24.5 27.2 20.6 79 2.6 NE 7 15 4 8 - - 0.0
02/06:30pm 25.4 28.1 20.6 75 3.1 NE 7 13 4 7 - - 0.0
02/06:00pm 26.3 28.6 20.6 71 3.7 NNE 9 17 5 9 - - 0.0
02/05:30pm 27.1 28.9 20.4 66 4.4 NE 11 24 6 13 - - 0.0
02/05:00pm 28.2 29.8 20.7 63 5.0 NE 13 24 7 13 - - 0.0
02/04:30pm 28.8 30.6 20.3 60 5.6 NE 11 22 6 12 - - 0.0
02/04:00pm 29.8 31.1 20.1 56 6.4 ENE 13 22 7 12 - - 0.0
02/03:30pm 30.6 31.9 20.2 53 6.9 NNE 13 26 7 14 - - 0.0
02/03:00pm 30.8 32.3 19.8 52 7.2 NE 11 20 6 11 - - 0.0
02/02:30pm 30.8 32.0 19.8 52 7.2 NE 13 22 7 12 - - 0.0
02/02:00pm 31.0 32.5 20.6 54 6.9 NNE 13 24 7 13 - - 0.0
02/01:30pm 31.2 33.2 20.8 54 6.9 NE 11 28 6 15 - - 0.0
02/01:00pm 31.3 33.5 21.2 55 6.8 NE 11 24 6 13 - - 0.0
02/12:30pm 31.3 33.9 21.2 55 6.8 E 9 19 5 10 - - 0.0
02/12:00pm 31.1 33.5 21.6 57 6.4 E 11 19 6 10 - - 0.0
02/11:30am 30.8 33.3 21.0 56 6.6 E 9 20 5 11 - - 0.0
02/11:00am 31.2 33.1 18.9 48 8.0 ENE 7 13 4 7 - - 0.0
02/10:30am 30.2 31.8 19.2 51 7.2 N 9 20 5 11 - - 0.0
02/10:00am 29.0 30.9 19.0 54 6.5 ESE 7 11 4 6 - - 0.0
02/09:30am 27.8 29.8 19.1 59 5.6 NNE 7 11 4 6 - - 0.0
02/09:00am 26.6 28.0 18.7 62 5.1 N 9 13 5 7 - - 13.4
02/08:30am 26.3 28.8 19.9 68 4.2 E 6 9 3 5 - - 13.4
02/08:00am 24.1 26.6 19.0 73 3.3 SSE 4 7 2 4 - - 13.4
02/07:30am 22.6 25.6 19.2 81 2.2 N 2 6 1 3 - - 13.4
02/07:00am 21.3 24.4 18.7 85 1.6 CALM 0 4 0 2 - - 13.4
02/06:30am 20.3 23.3 18.4 89 1.2 CALM 0 0 0 0 - - 13.4
02/06:00am 19.1 21.9 17.9 93 0.7 CALM 0 0 0 0 - - 13.4
02/05:30am 18.2 20.6 17.0 93 0.7 CALM 0 0 0 0 - - 13.4
02/05:00am 17.6 18.7 16.5 93 0.7 NNW 6 7 3 4 - - 13.4
02/04:30am 17.3 19.0 16.2 93 0.7 NNW 2 6 1 3 - - 13.4
02/04:00am 17.5 19.6 16.2 92 0.8 CALM 0 0 0 0 - - 13.4
02/03:30am 17.5 19.6 16.2 92 0.8 CALM 0 0 0 0 - - 13.4
02/03:00am 17.6 19.6 16.1 91 0.9 CALM 0 0 0 0 - - 13.4
02/02:30am 17.8 19.5 16.3 91 0.9 E 2 7 1 4 - - 13.2
02/02:00am 18.0 19.8 16.5 91 0.9 N 2 6 1 3 - - 13.2
02/01:30am 18.0 20.2 16.5 91 0.9 CALM 0 0 0 0 - - 13.2
02/01:00am 18.3 20.6 16.8 91 0.9 CALM 0 0 0 0 - - 13.2
02/12:30am 18.2 20.4 16.5 90 1.0 CALM 0 0 0 0 - - 13.2
02/12:00am 18.6 21.0 17.1 91 0.9 CALM 0 0 0 0 - - 13.2
 
Date/Time
EST
Temp
°C
App
Temp
°C
Dew
Point
°C
Rel
Hum
%
Delta-T
°C
Wind Press
QNH
hPa
Press
MSL
hPa
Rain since
9am
mm
Dir  Spd
km/h
Gust
km/h
Spd
kts
Gust
kts
01/11:30pm 18.9 21.3 17.0 89 1.2 CALM 0 0 0 0 - - 13.2
01/11:00pm 19.0 21.4 17.1 89 1.2 CALM 0 0 0 0 - - 13.2
01/10:30pm 19.5 22.0 17.3 87 1.3 CALM 0 0 0 0 - - 13.2
01/10:00pm 20.4 23.2 18.0 86 1.5 CALM 0 0 0 0 - - 13.2
01/09:30pm 21.3 22.8 19.0 87 1.5 NNE 9 13 5 7 - - 13.2
01/09:00pm 21.4 23.9 19.9 91 1.0 NNE 6 11 3 6 - - 13.2
01/08:30pm 21.3 24.0 19.4 89 1.2 N 4 7 2 4 - - 13.0
01/08:00pm 21.1 23.1 19.2 89 1.2 N 7 13 4 7 - - 9.4
01/07:30pm 20.9 23.3 18.8 88 1.3 NNE 4 11 2 6 - - 6.2
01/07:00pm 21.8 23.4 19.2 85 1.7 NNE 9 15 5 8 - - 5.4
01/06:30pm 21.6 21.9 19.5 88 1.3 N 17 28 9 15 - - 4.2
01/06:00pm 22.8 24.3 19.8 83 1.9 E 11 24 6 13 - - 2.8
01/05:30pm 22.9 22.9 19.7 82 2.1 N 19 32 10 17 - - 2.6
01/05:00pm 22.8 22.6 19.8 83 1.9 N 20 39 11 21 - - 2.6
01/04:30pm 22.5 22.4 20.0 86 1.6 N 20 32 11 17 - - 2.6

Other Formats:

Comma delimited format used in spreadsheet applications
http://www.bom.gov.au/fwo/IDQ60801/IDQ60801.95566.axf

JavaScript Object Notation format (JSON) in row-major order
http://www.bom.gov.au/fwo/IDQ60801/IDQ60801.95566.json